sensor_id;sensor_type;location;lat;lon;timestamp;pressure;altitude;pressure_sealevel;temperature;humidity
28630;BME280;15817;42.130;24.762;2023-07-09T03:15:34;100063.91;;;23.18;59.96
28630;BME280;15817;42.130;24.762;2023-07-09T03:18:00;100064.88;;;23.17;59.89
28630;BME280;15817;42.130;24.762;2023-07-09T03:20:26;100074.94;;;23.15;59.93
28630;BME280;15817;42.130;24.762;2023-07-09T03:22:55;100077.28;;;23.21;60.01
28630;BME280;15817;42.130;24.762;2023-07-09T03:25:21;100073.97;;;23.16;59.78
28630;BME280;15817;42.130;24.762;2023-07-09T03:27:48;100073.41;;;23.09;59.51
28630;BME280;15817;42.130;24.762;2023-07-09T03:30:14;100083.94;;;23.16;59.49
28630;BME280;15817;42.130;24.762;2023-07-09T03:32:40;100076.84;;;23.13;59.44
28630;BME280;15817;42.130;24.762;2023-07-09T03:35:06;100078.84;;;23.09;59.44
28630;BME280;15817;42.130;24.762;2023-07-09T03:37:32;100071.84;;;23.05;59.70
28630;BME280;15817;42.130;24.762;2023-07-09T03:39:58;100086.91;;;23.11;59.47
28630;BME280;15817;42.130;24.762;2023-07-09T03:42:26;100079.72;;;23.10;59.29
28630;BME280;15817;42.130;24.762;2023-07-09T03:44:52;100085.88;;;23.14;59.26
28630;BME280;15817;42.130;24.762;2023-07-09T03:47:18;100089.38;;;23.16;59.74
28630;BME280;15817;42.130;24.762;2023-07-09T03:49:43;100084.84;;;23.16;59.27
28630;BME280;15817;42.130;24.762;2023-07-09T03:52:09;100077.56;;;23.17;59.52
28630;BME280;15817;42.130;24.762;2023-07-09T03:54:35;100076.41;;;23.05;59.25
28630;BME280;15817;42.130;24.762;2023-07-09T03:57:03;100082.63;;;23.07;59.46
28630;BME280;15817;42.130;24.762;2023-07-09T03:59:31;100080.66;;;23.09;59.30
28630;BME280;15817;42.130;24.762;2023-07-09T04:01:57;100096.78;;;23.12;58.94
28630;BME280;15817;42.130;24.762;2023-07-09T04:04:27;100087.25;;;23.05;58.76
28630;BME280;15817;42.130;24.762;2023-07-09T04:06:53;100082.69;;;23.05;59.07
28630;BME280;15817;42.130;24.762;2023-07-09T04:09:18;100086.97;;;23.09;59.25
28630;BME280;15817;42.130;24.762;2023-07-09T04:11:50;100078.06;;;23.07;58.74
28630;BME280;15817;42.130;24.762;2023-07-09T04:14:21;100089.53;;;23.13;58.75
28630;BME280;15817;42.130;24.762;2023-07-09T04:16:47;100095.03;;;23.11;58.27
28630;BME280;15817;42.130;24.762;2023-07-09T04:19:12;100090.25;;;23.16;58.72
28630;BME280;15817;42.130;24.762;2023-07-09T04:21:41;100107.56;;;23.14;58.33
28630;BME280;15817;42.130;24.762;2023-07-09T04:24:06;100097.84;;;23.09;58.22
28630;BME280;15817;42.130;24.762;2023-07-09T04:26:32;100108.38;;;23.16;58.55
28630;BME280;15817;42.130;24.762;2023-07-09T04:29:01;100101.03;;;23.18;58.86
28630;BME280;15817;42.130;24.762;2023-07-09T04:31:26;100108.84;;;23.24;58.90
28630;BME280;15817;42.130;24.762;2023-07-09T04:33:52;100102.94;;;23.16;58.86
28630;BME280;15817;42.130;24.762;2023-07-09T04:36:30;100110.13;;;23.17;58.50
28630;BME280;15817;42.130;24.762;2023-07-09T04:39:02;100107.41;;;23.17;58.59
28630;BME280;15817;42.130;24.762;2023-07-09T04:41:33;100109.00;;;23.21;59.08
28630;BME280;15817;42.130;24.762;2023-07-09T04:44:01;100111.53;;;23.24;58.61
28630;BME280;15817;42.130;24.762;2023-07-09T04:46:30;100112.50;;;23.23;58.36
28630;BME280;15817;42.130;24.762;2023-07-09T04:48:58;100121.91;;;23.33;58.85
28630;BME280;15817;42.130;24.762;2023-07-09T04:51:26;100106.69;;;23.30;59.09
28630;BME280;15817;42.130;24.762;2023-07-09T04:53:54;100103.97;;;23.30;58.63
28630;BME280;15817;42.130;24.762;2023-07-09T04:56:23;100107.44;;;23.32;58.44
28630;BME280;15817;42.130;24.762;2023-07-09T04:58:51;100104.72;;;23.32;58.78
28630;BME280;15817;42.130;24.762;2023-07-09T05:01:17;100107.44;;;23.32;58.11
28630;BME280;15817;42.130;24.762;2023-07-09T05:03:48;100113.66;;;23.34;58.00
28630;BME280;15817;42.130;24.762;2023-07-09T05:06:15;100120.69;;;23.38;57.81
28630;BME280;15817;42.130;24.762;2023-07-09T05:08:41;100115.28;;;23.38;57.78
28630;BME280;15817;42.130;24.762;2023-07-09T05:11:08;100118.59;;;23.43;57.71
28630;BME280;15817;42.130;24.762;2023-07-09T05:13:34;100117.97;;;23.38;57.50
28630;BME280;15817;42.130;24.762;2023-07-09T05:20:08;100121.66;;;23.37;57.25
28630;BME280;15817;42.130;24.762;2023-07-09T05:23:20;100131.22;;;23.44;57.33
28630;BME280;15817;42.130;24.762;2023-07-09T05:26:04;100125.78;;;23.44;56.89
28630;BME280;15817;42.130;24.762;2023-07-09T05:28:30;100119.47;;;23.44;56.71
28630;BME280;15817;42.130;24.762;2023-07-09T05:31:09;100126.41;;;23.50;56.94
28630;BME280;15817;42.130;24.762;2023-07-09T05:33:45;100121.75;;;23.53;56.92
28630;BME280;15817;42.130;24.762;2023-07-09T05:36:14;100121.81;;;23.52;56.49
28630;BME280;15817;42.130;24.762;2023-07-09T05:38:44;100131.44;;;23.57;56.68
28630;BME280;15817;42.130;24.762;2023-07-09T05:41:16;100122.44;;;23.57;56.42
28630;BME280;15817;42.130;24.762;2023-07-09T05:44:14;100117.94;;;23.56;55.44
28630;BME280;15817;42.130;24.762;2023-07-09T05:46:39;100112.38;;;23.59;56.36
28630;BME280;15817;42.130;24.762;2023-07-09T05:49:06;100107.66;;;23.62;56.47
28630;BME280;15817;42.130;24.762;2023-07-09T05:51:35;100111.75;;;23.69;56.81
28630;BME280;15817;42.130;24.762;2023-07-09T05:54:01;100108.16;;;23.69;55.95
28630;BME280;15817;42.130;24.762;2023-07-09T05:56:27;100120.63;;;23.73;55.44
28630;BME280;15817;42.130;24.762;2023-07-09T05:58:53;100119.59;;;23.75;55.93
28630;BME280;15817;42.130;24.762;2023-07-09T06:01:33;100108.59;;;23.77;55.42
28630;BME280;15817;42.130;24.762;2023-07-09T06:04:04;100104.25;;;23.74;55.34
28630;BME280;15817;42.130;24.762;2023-07-09T06:06:34;100105.03;;;23.76;56.06
28630;BME280;15817;42.130;24.762;2023-07-09T06:09:52;100100.28;;;23.80;55.27
28630;BME280;15817;42.130;24.762;2023-07-09T06:12:29;100095.81;;;23.79;55.38
28630;BME280;15817;42.130;24.762;2023-07-09T06:15:32;100096.44;;;23.84;54.95
28630;BME280;15817;42.130;24.762;2023-07-09T06:18:29;100091.00;;;23.84;54.69
28630;BME280;15817;42.130;24.762;2023-07-09T06:52:44;100090.56;;;24.23;53.62
28630;BME280;15817;42.130;24.762;2023-07-09T06:55:12;100093.91;;;24.28;53.83
28630;BME280;15817;42.130;24.762;2023-07-09T06:57:37;100090.22;;;24.29;54.04
28630;BME280;15817;42.130;24.762;2023-07-09T07:00:04;100081.03;;;24.32;53.85
28630;BME280;15817;42.130;24.762;2023-07-09T07:02:30;100078.00;;;24.36;53.69
28630;BME280;15817;42.130;24.762;2023-07-09T07:04:55;100085.72;;;24.44;53.60
28630;BME280;15817;42.130;24.762;2023-07-09T07:24:38;100074.25;;;24.69;53.77
28630;BME280;15817;42.130;24.762;2023-07-09T07:27:16;100072.91;;;24.76;53.06
28630;BME280;15817;42.130;24.762;2023-07-09T07:32:51;100071.09;;;24.90;53.80
28630;BME280;15817;42.130;24.762;2023-07-09T07:35:20;100068.09;;;24.95;52.72
28630;BME280;15817;42.130;24.762;2023-07-09T07:37:54;100073.47;;;24.97;52.97
28630;BME280;15817;42.130;24.762;2023-07-09T07:40:23;100061.03;;;25.07;52.23
28630;BME280;15817;42.130;24.762;2023-07-09T07:42:57;100059.78;;;25.12;52.30
28630;BME280;15817;42.130;24.762;2023-07-09T07:45:22;100065.78;;;25.17;52.27
28630;BME280;15817;42.130;24.762;2023-07-09T07:47:54;100062.09;;;25.18;52.25
28630;BME280;15817;42.130;24.762;2023-07-09T07:50:26;100049.97;;;25.24;51.76
28630;BME280;15817;42.130;24.762;2023-07-09T07:52:51;100048.59;;;25.31;51.99
28630;BME280;15817;42.130;24.762;2023-07-09T07:55:17;100054.31;;;25.41;51.07
28630;BME280;15817;42.130;24.762;2023-07-09T07:57:47;100054.81;;;25.47;51.49
28630;BME280;15817;42.130;24.762;2023-07-09T08:00:19;100047.88;;;25.56;50.96
28630;BME280;15817;42.130;24.762;2023-07-09T08:02:56;100057.25;;;25.66;50.50
28630;BME280;15817;42.130;24.762;2023-07-09T08:05:30;100052.75;;;25.79;49.33
28630;BME280;15817;42.130;24.762;2023-07-09T08:08:13;100052.72;;;25.93;48.11
28630;BME280;15817;42.130;24.762;2023-07-09T08:11:09;100061.41;;;26.13;47.32
28630;BME280;15817;42.130;24.762;2023-07-09T08:13:42;100049.09;;;26.34;46.34
28630;BME280;15817;42.130;24.762;2023-07-09T08:16:30;100050.03;;;26.60;46.50
28630;BME280;15817;42.130;24.762;2023-07-09T08:18:56;100048.00;;;26.76;46.06
28630;BME280;15817;42.130;24.762;2023-07-09T08:21:31;100047.81;;;27.04;45.50
28630;BME280;15817;42.130;24.762;2023-07-09T08:23:57;100037.97;;;27.27;44.29
28630;BME280;15817;42.130;24.762;2023-07-09T08:26:23;100045.59;;;27.48;44.01
28630;BME280;15817;42.130;24.762;2023-07-09T08:28:50;100035.50;;;27.73;43.24
28630;BME280;15817;42.130;24.762;2023-07-09T08:31:25;100025.47;;;27.98;42.57
28630;BME280;15817;42.130;24.762;2023-07-09T08:33:50;100025.50;;;28.22;41.49
28630;BME280;15817;42.130;24.762;2023-07-09T08:36:16;100021.88;;;28.45;41.35
28630;BME280;15817;42.130;24.762;2023-07-09T08:38:48;100021.97;;;28.67;40.56
28630;BME280;15817;42.130;24.762;2023-07-09T08:44:26;100038.91;;;29.18;38.44
28630;BME280;15817;42.130;24.762;2023-07-09T08:47:02;100026.69;;;29.34;39.38
28630;BME280;15817;42.130;24.762;2023-07-09T08:55:21;100017.31;;;30.03;37.82
28630;BME280;15817;42.130;24.762;2023-07-09T08:58:33;100017.88;;;30.18;37.06
28630;BME280;15817;42.130;24.762;2023-07-09T09:01:14;100019.34;;;30.33;36.19
28630;BME280;15817;42.130;24.762;2023-07-09T09:10:02;100012.28;;;30.72;36.92
28630;BME280;15817;42.130;24.762;2023-07-09T09:12:51;100014.16;;;30.92;36.18
28630;BME280;15817;42.130;24.762;2023-07-09T09:15:28;100015.84;;;31.25;36.23
28630;BME280;15817;42.130;24.762;2023-07-09T09:27:21;100013.16;;;31.85;33.25
28630;BME280;15817;42.130;24.762;2023-07-09T09:29:55;100022.91;;;32.08;34.24
28630;BME280;15817;42.130;24.762;2023-07-09T09:32:30;100015.88;;;32.25;33.44
28630;BME280;15817;42.130;24.762;2023-07-09T09:35:17;100012.44;;;32.42;36.47
28630;BME280;15817;42.130;24.762;2023-07-09T09:37:53;100007.94;;;32.51;34.09
28630;BME280;15817;42.130;24.762;2023-07-09T09:40:20;100017.47;;;32.66;36.81
28630;BME280;15817;42.130;24.762;2023-07-09T09:43:15;100014.56;;;32.67;33.82
28630;BME280;15817;42.130;24.762;2023-07-09T09:46:05;99997.75;;;32.80;35.27
28630;BME280;15817;42.130;24.762;2023-07-09T09:48:39;99997.47;;;32.83;32.94
28630;BME280;15817;42.130;24.762;2023-07-09T09:51:15;100004.97;;;33.00;32.40
28630;BME280;15817;42.130;24.762;2023-07-09T09:53:48;100009.16;;;33.04;31.75
28630;BME280;15817;42.130;24.762;2023-07-09T09:56:20;100008.53;;;33.30;33.24
28630;BME280;15817;42.130;24.762;2023-07-09T09:59:32;100010.81;;;33.44;31.18
28630;BME280;15817;42.130;24.762;2023-07-09T10:02:16;99998.72;;;33.55;30.04
28630;BME280;15817;42.130;24.762;2023-07-09T10:04:57;100003.72;;;33.69;29.41
28630;BME280;15817;42.130;24.762;2023-07-09T10:10:44;99987.56;;;33.74;29.02
28630;BME280;15817;42.130;24.762;2023-07-09T10:16:32;99984.66;;;34.03;31.57
28630;BME280;15817;42.130;24.762;2023-07-09T10:19:32;99984.03;;;34.09;32.52
28630;BME280;15817;42.130;24.762;2023-07-09T10:31:26;99989.34;;;34.38;28.77
28630;BME280;15817;42.130;24.762;2023-07-09T10:39:48;99976.22;;;34.40;28.32
28630;BME280;15817;42.130;24.762;2023-07-09T10:42:41;99983.34;;;34.42;27.86
28630;BME280;15817;42.130;24.762;2023-07-09T10:45:13;99972.22;;;34.34;27.87
28630;BME280;15817;42.130;24.762;2023-07-09T10:55:41;99968.00;;;34.83;26.96
28630;BME280;15817;42.130;24.762;2023-07-09T10:58:43;99972.50;;;34.84;27.02
28630;BME280;15817;42.130;24.762;2023-07-09T11:01:15;99967.28;;;34.81;26.70
28630;BME280;15817;42.130;24.762;2023-07-09T11:04:41;99971.56;;;34.76;27.04
28630;BME280;15817;42.130;24.762;2023-07-09T11:07:19;99972.97;;;34.80;26.66
28630;BME280;15817;42.130;24.762;2023-07-09T11:09:54;99976.34;;;34.92;27.17
28630;BME280;15817;42.130;24.762;2023-07-09T11:13:09;99964.53;;;34.81;26.50
28630;BME280;15817;42.130;24.762;2023-07-09T11:15:43;99951.56;;;34.82;26.63
28630;BME280;15817;42.130;24.762;2023-07-09T11:18:16;99958.94;;;34.99;26.95
28630;BME280;15817;42.130;24.762;2023-07-09T11:24:03;99956.03;;;35.09;26.71
28630;BME280;15817;42.130;24.762;2023-07-09T11:26:55;99953.81;;;35.12;26.17
28630;BME280;15817;42.130;24.762;2023-07-09T11:29:43;99948.84;;;35.16;27.10
28630;BME280;15817;42.130;24.762;2023-07-09T11:32:17;99945.53;;;35.12;27.13
28630;BME280;15817;42.130;24.762;2023-07-09T11:34:46;99948.75;;;35.00;27.02
28630;BME280;15817;42.130;24.762;2023-07-09T11:37:31;99927.06;;;34.87;26.86
28630;BME280;15817;42.130;24.762;2023-07-09T11:40:10;99928.09;;;34.86;27.33
28630;BME280;15817;42.130;24.762;2023-07-09T11:42:58;99931.09;;;34.75;27.09
28630;BME280;15817;42.130;24.762;2023-07-09T11:45:32;99917.41;;;34.91;27.25
28630;BME280;15817;42.130;24.762;2023-07-09T11:48:25;99932.16;;;35.00;27.91
28630;BME280;15817;42.130;24.762;2023-07-09T11:50:56;99922.06;;;34.91;27.12
28630;BME280;15817;42.130;24.762;2023-07-09T11:53:55;99921.13;;;35.08;26.98
28630;BME280;15817;42.130;24.762;2023-07-09T11:56:32;99917.09;;;34.94;26.91
28630;BME280;15817;42.130;24.762;2023-07-09T11:59:01;99913.06;;;34.89;27.44
28630;BME280;15817;42.130;24.762;2023-07-09T12:01:46;99918.91;;;34.85;27.89
28630;BME280;15817;42.130;24.762;2023-07-09T12:04:34;99907.34;;;34.82;26.62
28630;BME280;15817;42.130;24.762;2023-07-09T12:07:03;99910.44;;;34.79;27.56
28630;BME280;15817;42.130;24.762;2023-07-09T12:09:33;99903.75;;;34.90;27.89
28630;BME280;15817;42.130;24.762;2023-07-09T12:12:03;99903.72;;;34.81;27.64
28630;BME280;15817;42.130;24.762;2023-07-09T12:14:45;99897.78;;;34.76;27.54
28630;BME280;15817;42.130;24.762;2023-07-09T12:17:26;99887.13;;;34.81;27.09
28630;BME280;15817;42.130;24.762;2023-07-09T12:19:54;99900.09;;;34.81;27.16
28630;BME280;15817;42.130;24.762;2023-07-09T12:22:32;99885.47;;;34.71;27.31
28630;BME280;15817;42.130;24.762;2023-07-09T12:25:19;99891.06;;;34.79;27.56
28630;BME280;15817;42.130;24.762;2023-07-09T12:30:56;99885.34;;;34.55;28.16
28630;BME280;15817;42.130;24.762;2023-07-09T12:37:01;99870.34;;;34.57;28.76
28630;BME280;15817;42.130;24.762;2023-07-09T12:42:33;99869.16;;;34.60;28.54
28630;BME280;15817;42.130;24.762;2023-07-09T12:48:37;99857.03;;;34.53;28.98
28630;BME280;15817;42.130;24.762;2023-07-09T12:51:20;99846.13;;;34.51;29.00
28630;BME280;15817;42.130;24.762;2023-07-09T12:54:18;99861.03;;;34.58;29.23
28630;BME280;15817;42.130;24.762;2023-07-09T12:57:16;99846.13;;;34.51;29.40
28630;BME280;15817;42.130;24.762;2023-07-09T13:03:08;99835.41;;;34.48;29.69
28630;BME280;15817;42.130;24.762;2023-07-09T13:09:33;99824.66;;;34.37;29.27
28630;BME280;15817;42.130;24.762;2023-07-09T13:12:30;99831.56;;;34.41;29.19
28630;BME280;15817;42.130;24.762;2023-07-09T13:15:19;99834.47;;;34.39;29.93
28630;BME280;15817;42.130;24.762;2023-07-09T13:18:03;99830.84;;;34.39;30.25
28630;BME280;15817;42.130;24.762;2023-07-09T13:20:38;99826.47;;;34.28;30.02
28630;BME280;15817;42.130;24.762;2023-07-09T13:23:17;99835.97;;;34.26;30.12
28630;BME280;15817;42.130;24.762;2023-07-09T13:25:49;99840.97;;;34.30;30.07
28630;BME280;15817;42.130;24.762;2023-07-09T13:28:27;99822.16;;;34.26;29.62
28630;BME280;15817;42.130;24.762;2023-07-09T13:31:01;99831.31;;;34.26;30.32
28630;BME280;15817;42.130;24.762;2023-07-09T13:33:48;99823.88;;;34.27;30.25
28630;BME280;15817;42.130;24.762;2023-07-09T13:36:15;99834.50;;;34.22;30.51
28630;BME280;15817;42.130;24.762;2023-07-09T13:38:44;99818.25;;;34.19;30.28
28630;BME280;15817;42.130;24.762;2023-07-09T13:41:22;99823.94;;;34.17;30.10
28630;BME280;15817;42.130;24.762;2023-07-09T13:43:48;99817.72;;;34.15;31.25
28630;BME280;15817;42.130;24.762;2023-07-09T13:46:22;99816.50;;;34.17;30.68
28630;BME280;15817;42.130;24.762;2023-07-09T13:49:14;99816.66;;;34.16;30.81
28630;BME280;15817;42.130;24.762;2023-07-09T13:51:41;99822.03;;;34.17;31.04
28630;BME280;15817;42.130;24.762;2023-07-09T13:54:17;99823.06;;;34.16;30.51
28630;BME280;15817;42.130;24.762;2023-07-09T13:56:44;99821.88;;;34.19;30.38
28630;BME280;15817;42.130;24.762;2023-07-09T13:59:35;99815.44;;;34.10;30.43
28630;BME280;15817;42.130;24.762;2023-07-09T14:02:00;99825.16;;;34.14;30.37
28630;BME280;15817;42.130;24.762;2023-07-09T14:04:27;99821.44;;;34.06;30.55
28630;BME280;15817;42.130;24.762;2023-07-09T14:06:53;99822.84;;;34.10;30.56
28630;BME280;15817;42.130;24.762;2023-07-09T14:09:19;99837.47;;;34.02;30.68
28630;BME280;15817;42.130;24.762;2023-07-09T14:11:50;99838.34;;;34.03;30.56
28630;BME280;15817;42.130;24.762;2023-07-09T14:14:23;99832.25;;;33.99;30.45
28630;BME280;15817;42.130;24.762;2023-07-09T14:16:49;99831.06;;;34.02;31.20
28630;BME280;15817;42.130;24.762;2023-07-09T14:19:22;99831.44;;;34.07;31.43
28630;BME280;15817;42.130;24.762;2023-07-09T14:21:49;99830.06;;;34.03;31.07
28630;BME280;15817;42.130;24.762;2023-07-09T14:24:42;99836.69;;;33.92;31.14
28630;BME280;15817;42.130;24.762;2023-07-09T14:27:23;99831.38;;;33.81;31.67
28630;BME280;15817;42.130;24.762;2023-07-09T14:30:19;99834.50;;;33.78;31.26
28630;BME280;15817;42.130;24.762;2023-07-09T14:32:58;99830.38;;;33.82;31.45
28630;BME280;15817;42.130;24.762;2023-07-09T14:35:26;99826.72;;;33.64;31.94
28630;BME280;15817;42.130;24.762;2023-07-09T14:38:18;99830.19;;;33.66;32.10
28630;BME280;15817;42.130;24.762;2023-07-09T14:41:04;99827.19;;;33.59;31.32
28630;BME280;15817;42.130;24.762;2023-07-09T14:43:46;99823.63;;;33.49;32.43
28630;BME280;15817;42.130;24.762;2023-07-09T14:46:12;99833.91;;;33.57;32.51
28630;BME280;15817;42.130;24.762;2023-07-09T14:48:44;99823.75;;;33.57;31.97
28630;BME280;15817;42.130;24.762;2023-07-09T14:51:18;99828.06;;;33.60;32.09
28630;BME280;15817;42.130;24.762;2023-07-09T14:53:45;99823.78;;;33.48;32.43
28630;BME280;15817;42.130;24.762;2023-07-09T14:56:15;99830.31;;;33.29;32.58
28630;BME280;15817;42.130;24.762;2023-07-09T14:58:47;99823.56;;;33.14;32.47
28630;BME280;15817;42.130;24.762;2023-07-09T15:01:22;99836.38;;;33.05;32.28
28630;BME280;15817;42.130;24.762;2023-07-09T15:03:50;99838.16;;;32.96;32.64
28630;BME280;15817;42.130;24.762;2023-07-09T15:06:18;99829.75;;;32.98;32.66
28630;BME280;15817;42.130;24.762;2023-07-09T15:08:44;99832.94;;;32.93;32.53
28630;BME280;15817;42.130;24.762;2023-07-09T15:11:12;99828.38;;;32.84;32.66
28630;BME280;15817;42.130;24.762;2023-07-09T15:13:41;99835.34;;;32.79;32.96
28630;BME280;15817;42.130;24.762;2023-07-09T15:16:08;99836.97;;;32.71;33.42
28630;BME280;15817;42.130;24.762;2023-07-09T15:18:34;99839.13;;;32.68;33.32
28630;BME280;15817;42.130;24.762;2023-07-09T15:21:05;99837.84;;;32.62;33.55
28630;BME280;15817;42.130;24.762;2023-07-09T15:26:50;99843.75;;;32.67;33.22
28630;BME280;15817;42.130;24.762;2023-07-09T15:29:42;99835.25;;;32.61;33.70
28630;BME280;15817;42.130;24.762;2023-07-09T15:32:11;99847.56;;;32.57;34.29
28630;BME280;15817;42.130;24.762;2023-07-09T15:34:58;99852.34;;;32.55;34.15
28630;BME280;15817;42.130;24.762;2023-07-09T15:37:29;99848.47;;;32.48;33.82
28630;BME280;15817;42.130;24.762;2023-07-09T15:43:50;99850.34;;;32.47;34.05
28630;BME280;15817;42.130;24.762;2023-07-09T15:46:56;99845.47;;;32.41;34.27
28630;BME280;15817;42.130;24.762;2023-07-09T15:49:52;99849.09;;;32.32;34.93
28630;BME280;15817;42.130;24.762;2023-07-09T15:52:21;99860.41;;;32.29;34.78
28630;BME280;15817;42.130;24.762;2023-07-09T15:54:47;99858.69;;;32.28;35.18
28630;BME280;15817;42.130;24.762;2023-07-09T15:57:14;99860.13;;;32.22;35.40
28630;BME280;15817;42.130;24.762;2023-07-09T15:59:46;99860.69;;;32.16;35.68
28630;BME280;15817;42.130;24.762;2023-07-09T16:02:13;99873.72;;;32.14;35.54
28630;BME280;15817;42.130;24.762;2023-07-09T16:04:43;99867.06;;;32.07;36.04
28630;BME280;15817;42.130;24.762;2023-07-09T16:07:23;99872.13;;;32.02;36.00
28630;BME280;15817;42.130;24.762;2023-07-09T16:09:55;99869.13;;;31.95;36.03
28630;BME280;15817;42.130;24.762;2023-07-09T16:12:33;99879.66;;;31.90;35.74
28630;BME280;15817;42.130;24.762;2023-07-09T16:15:05;99880.09;;;31.86;35.82
28630;BME280;15817;42.130;24.762;2023-07-09T16:17:35;99883.13;;;31.73;36.43
28630;BME280;15817;42.130;24.762;2023-07-09T16:20:18;99887.59;;;31.64;36.98
28630;BME280;15817;42.130;24.762;2023-07-09T16:23:15;99887.72;;;31.63;37.06
28630;BME280;15817;42.130;24.762;2023-07-09T16:25:46;99891.66;;;31.60;37.08
28630;BME280;15817;42.130;24.762;2023-07-09T16:28:14;99905.66;;;31.57;37.00
28630;BME280;15817;42.130;24.762;2023-07-09T16:30:40;99895.97;;;31.53;37.04
28630;BME280;15817;42.130;24.762;2023-07-09T16:33:06;99896.06;;;31.42;36.96
28630;BME280;15817;42.130;24.762;2023-07-09T16:35:35;99917.94;;;31.44;36.74
28630;BME280;15817;42.130;24.762;2023-07-09T16:38:01;99923.84;;;31.39;36.96
28630;BME280;15817;42.130;24.762;2023-07-09T16:40:29;99917.31;;;31.30;36.98
28630;BME280;15817;42.130;24.762;2023-07-09T16:42:57;99927.00;;;31.25;36.61
28630;BME280;15817;42.130;24.762;2023-07-09T16:45:35;99917.56;;;31.18;36.67
28630;BME280;15817;42.130;24.762;2023-07-09T16:48:23;99921.03;;;31.20;36.84
28630;BME280;15817;42.130;24.762;2023-07-09T16:50:51;99932.47;;;31.15;36.98
28630;BME280;15817;42.130;24.762;2023-07-09T16:53:20;99937.22;;;31.13;36.92
28630;BME280;15817;42.130;24.762;2023-07-09T16:55:47;99936.06;;;31.16;37.01
28630;BME280;15817;42.130;24.762;2023-07-09T17:01:00;99939.31;;;31.00;37.13
28630;BME280;15817;42.130;24.762;2023-07-09T17:03:26;99944.06;;;30.98;36.97
28630;BME280;15817;42.130;24.762;2023-07-09T17:05:53;99936.22;;;30.93;37.27
28630;BME280;15817;42.130;24.762;2023-07-09T17:08:18;99949.69;;;30.96;37.25
28630;BME280;15817;42.130;24.762;2023-07-09T17:10:45;99935.91;;;30.87;37.15
28630;BME280;15817;42.130;24.762;2023-07-09T17:13:19;99956.63;;;30.91;37.17
28630;BME280;15817;42.130;24.762;2023-07-09T17:15:50;99951.78;;;30.83;37.23
28630;BME280;15817;42.130;24.762;2023-07-09T17:18:27;99945.25;;;30.75;37.51
28630;BME280;15817;42.130;24.762;2023-07-09T17:20:55;99954.47;;;30.74;37.64
28630;BME280;15817;42.130;24.762;2023-07-09T17:23:25;99961.72;;;30.75;37.88
28630;BME280;15817;42.130;24.762;2023-07-09T17:25:55;99951.28;;;30.69;38.17
28630;BME280;15817;42.130;24.762;2023-07-09T17:28:23;99955.44;;;30.63;38.42
28630;BME280;15817;42.130;24.762;2023-07-09T17:31:02;99962.19;;;30.59;38.25
28630;BME280;15817;42.130;24.762;2023-07-09T17:33:28;99957.97;;;30.55;38.17
28630;BME280;15817;42.130;24.762;2023-07-09T17:35:56;99951.75;;;30.53;38.66
28630;BME280;15817;42.130;24.762;2023-07-09T17:38:55;99963.97;;;30.49;38.73
28630;BME280;15817;42.130;24.762;2023-07-09T17:41:26;99962.75;;;30.42;38.76
28630;BME280;15817;42.130;24.762;2023-07-09T17:43:52;99964.50;;;30.43;38.68
28630;BME280;15817;42.130;24.762;2023-07-09T17:46:18;99971.13;;;30.40;38.93
28630;BME280;15817;42.130;24.762;2023-07-09T17:49:15;99980.38;;;30.39;39.27
28630;BME280;15817;42.130;24.762;2023-07-09T17:51:44;99972.94;;;30.30;38.99
28630;BME280;15817;42.130;24.762;2023-07-09T17:54:20;99973.19;;;30.27;39.15
28630;BME280;15817;42.130;24.762;2023-07-09T17:57:29;99981.09;;;30.20;39.62
28630;BME280;15817;42.130;24.762;2023-07-09T17:59:57;99977.84;;;30.15;39.42
28630;BME280;15817;42.130;24.762;2023-07-09T18:02:41;99984.34;;;30.14;39.70
28630;BME280;15817;42.130;24.762;2023-07-09T18:05:25;99975.78;;;30.08;39.87
28630;BME280;15817;42.130;24.762;2023-07-09T18:07:57;99983.63;;;30.01;40.03
28630;BME280;15817;42.130;24.762;2023-07-09T18:10:29;99992.03;;;30.00;40.34
28630;BME280;15817;42.130;24.762;2023-07-09T18:13:01;99990.63;;;29.94;40.26
28630;BME280;15817;42.130;24.762;2023-07-09T18:15:28;100001.38;;;29.97;40.26
28630;BME280;15817;42.130;24.762;2023-07-09T18:17:57;99994.72;;;29.88;40.21
28630;BME280;15817;42.130;24.762;2023-07-09T18:20:38;99995.88;;;29.86;40.60
28630;BME280;15817;42.130;24.762;2023-07-09T18:23:10;100000.75;;;29.82;40.59
28630;BME280;15817;42.130;24.762;2023-07-09T18:25:44;100005.38;;;29.82;40.85
28630;BME280;15817;42.130;24.762;2023-07-09T18:28:28;100008.22;;;29.80;40.53
28630;BME280;15817;42.130;24.762;2023-07-09T18:30:59;100008.00;;;29.72;40.96
28630;BME280;15817;42.130;24.762;2023-07-09T18:33:26;100011.88;;;29.70;40.71
28630;BME280;15817;42.130;24.762;2023-07-09T18:36:07;100015.84;;;29.66;40.96
28630;BME280;15817;42.130;24.762;2023-07-09T18:38:36;100017.13;;;29.62;41.21
28630;BME280;15817;42.130;24.762;2023-07-09T18:41:14;100028.47;;;29.57;41.43
28630;BME280;15817;42.130;24.762;2023-07-09T18:43:54;100031.84;;;29.49;41.47
28630;BME280;15817;42.130;24.762;2023-07-09T18:46:25;100043.16;;;29.45;41.56
28630;BME280;15817;42.130;24.762;2023-07-09T18:48:51;100058.50;;;29.47;42.12
28630;BME280;15817;42.130;24.762;2023-07-09T18:51:22;100049.03;;;29.40;42.21
28630;BME280;15817;42.130;24.762;2023-07-09T18:53:50;100052.88;;;29.38;42.65
28630;BME280;15817;42.130;24.762;2023-07-09T18:56:16;100058.56;;;29.35;42.64
28630;BME280;15817;42.130;24.762;2023-07-09T18:58:53;100068.91;;;29.31;42.87
28630;BME280;15817;42.130;24.762;2023-07-09T19:01:24;100063.06;;;29.25;43.08